Erie, Minnesota
Current Conditions -  °F | °C
As of 2:35 PM on Monday 22 Dec 2014 (Local Time) from KTVF Reporting Station
Overcast Overcast  
Wind Chill: -1°   Ceiling: 1500
Heat Index:   Visibility: 10mi
Dew Point:   Wind: 7mph
Humidity: 100%   Direction: 80°E
Pressure: 29.57"   Gusts: NA
Location:  48.0638°N, 95.6851°W
Report Text: KTVF 222035Z AUTO 08006KT 10SM BKN015 BKN031 OVC042 02/02 A2957 RMK AO1
Loading
Personal Weather Stations






























Interactive Weather Map New forecast layout! Learn more

10-Day Weather Forecast

Advertisements
Track Severe Weather on mobile